KPNS/PNS METAR and TAF weather

Enter ICAO airport designator
Station Type Date Time Source
KPNS METAR 2019/06/16 04:53 UTC NOAA

KPNS 160453Z AUTO 17006KT 10SM FEW023 27/24 A3004 RMK AO2 SLP173 T02670239


Station Type Date Time Source
KPNS Decoded METAR 2019/06/16 04:53 UTC NOAA

PENSACOLA REGIONAL AIRPORT, FL, United States (KPNS) 30-29N 087-11W 38M
Jun 16, 2019 - 12:53 AM EDT / 2019.06.16 0453 UTC
Wind: from the S (170 degrees) at 7 MPH (6 KT):0
Visibility: 10 mile(s):0
Sky conditions: mostly clear
Temperature: 80.1 F (26.7 C)
Dew Point: 75.0 F (23.9 C)
Relative Humidity: 84%
Pressure (altimeter): 30.04 in. Hg (1017 hPa)
ob: KPNS 160453Z AUTO 17006KT 10SM FEW023 27/24 A3004 RMK AO2 SLP173 T02670239
cycle: 5

Station Type Date Time Source
KPNS TAF 2019/06/15 18:30 UTC NOAA

TAF KPNS 151729Z 1518/1618 18009KT P6SM SCT040
FM160300 17003KT P6SM SCT250

Example: see airport list